Time;durP1;ratioP1;P1;durP2;ratioP2;P2;SDS_P1;SDS_P2;PMS_P1;PMS_P2;Temp;Humidity;BMP_temperature;BMP_pressure;BME280_temperature;BME280_humidity;BME280_pressure;Samples;Min_cycle;Max_cycle;Signal;HPM_P1;HPM_P2
2021/11/07 00:01:52;;;;;;;9.13;6.45;;;;;;;10.46;100.00;101045.77;1742200;80;21065;-64
2021/11/07 00:04:32;;;;;;;9.80;6.58;;;;;;;9.77;100.00;101043.00;1743311;81;21519;-64
2021/11/07 00:07:08;;;;;;;10.30;7.05;;;;;;;10.47;100.00;101040.87;1737700;81;21841;-65
2021/11/07 00:09:30;;;;;;;11.75;7.47;;;;;;;10.40;100.00;101034.67;1734654;82;21053;-63
2021/11/07 00:11:58;;;;;;;10.45;7.45;;;;;;;9.41;100.00;101039.79;1736352;82;20947;-63
2021/11/07 00:14:23;;;;;;;9.85;7.25;;;;;;;9.82;100.00;101036.03;1735722;82;20998;-62
2021/11/07 00:16:50;;;;;;;14.60;8.30;;;;;;;9.99;100.00;101030.69;1736165;81;21477;-67
2021/11/07 00:24:27;;;;;;;13.78;8.08;;;;;;;9.95;100.00;101029.38;1736630;82;20994;-62
2021/11/07 00:26:54;;;;;;;10.82;7.83;;;;;;;10.07;100.00;101024.67;1735019;82;21521;-67
2021/11/07 00:29:23;;;;;;;13.48;8.28;;;;;;;9.96;100.00;101026.28;1736348;82;22451;-64
2021/11/07 00:32:04;;;;;;;17.45;10.45;;;;;;;9.68;100.00;101015.32;1735638;82;21173;-64
2021/11/07 00:37:01;;;;;;;15.23;9.10;;;;;;;9.77;100.00;101016.15;1700753;84;20940;-63
2021/11/07 00:39:38;;;;;;;14.05;8.18;;;;;;;9.87;100.00;101022.85;1703202;84;21482;-69
2021/11/07 00:47:32;;;;;;;12.95;8.88;;;;;;;9.21;100.00;101015.80;1679074;84;21085;-72
2021/11/07 00:49:44;;;;;;;13.20;9.15;;;;;;;9.17;100.00;101009.28;1676974;85;21069;-63
2021/11/07 00:52:23;;;;;;;16.02;9.33;;;;;;;9.14;100.00;101019.50;1684743;84;20996;-69
2021/11/07 00:54:56;;;;;;;16.62;10.93;;;;;;;9.13;100.00;101013.13;1735530;82;21514;-69
2021/11/07 00:57:18;;;;;;;15.90;10.28;;;;;;;8.50;100.00;101023.30;1736539;82;20967;-63
2021/11/07 01:00:05;;;;;;;16.48;10.90;;;;;;;8.46;100.00;101024.09;1736863;82;21078;-63
2021/11/07 01:02:22;;;;;;;14.78;10.15;;;;;;;8.45;100.00;101027.66;1692113;84;21048;-65
2021/11/07 01:04:50;;;;;;;16.32;10.13;;;;;;;8.31;100.00;101028.15;1736029;81;21118;-64
2021/11/07 01:07:18;;;;;;;15.72;10.25;;;;;;;8.22;100.00;101026.43;1736545;80;21477;-63
2021/11/07 01:09:45;;;;;;;18.87;10.03;;;;;;;8.43;100.00;101028.28;1735412;82;21139;-64
2021/11/07 01:12:12;;;;;;;14.47;9.08;;;;;;;8.52;100.00;101029.15;1734249;80;21039;-70
2021/11/07 01:14:38;;;;;;;14.78;9.30;;;;;;;8.59;100.00;101039.77;1716124;80;22493;-63
2021/11/07 01:17:06;;;;;;;13.60;8.48;;;;;;;8.51;100.00;101037.44;1715690;82;21082;-65
2021/11/07 01:19:33;;;;;;;12.28;8.58;;;;;;;8.45;100.00;101047.63;1713336;82;20943;-63
2021/11/07 01:22:03;;;;;;;10.90;8.05;;;;;;;8.29;100.00;101046.95;1716371;82;21140;-64
2021/11/07 01:24:36;;;;;;;11.90;8.05;;;;;;;8.56;100.00;101049.16;1711093;82;21508;-64
2021/11/07 01:27:09;;;;;;;11.88;8.68;;;;;;;8.28;100.00;101049.22;1715491;81;21552;-64
2021/11/07 01:29:27;;;;;;;12.63;7.62;;;;;;;8.42;100.00;101044.84;1710635;82;21109;-66
2021/11/07 01:31:56;;;;;;;13.43;7.87;;;;;;;8.20;100.00;101042.17;1715705;82;21015;-63
2021/11/07 01:37:08;;;;;;;13.22;8.23;;;;;;;7.98;100.00;101043.41;1736460;82;21587;-64
2021/11/07 01:45:11;;;;;;;11.40;8.05;;;;;;;8.25;100.00;101043.83;1737011;82;21157;-63
2021/11/07 01:47:15;;;;;;;;;;;;;;;8.52;100.00;101035.19;1733687;82;21092;-63
2021/11/07 01:49:43;;;;;;;12.55;7.92;;;;;;;8.65;100.00;101043.89;1736330;82;20177;-64
2021/11/07 01:52:12;;;;;;;10.13;7.40;;;;;;;8.81;100.00;101043.67;1724861;82;20979;-64
2021/11/07 01:57:17;;;;;;;12.37;8.40;;;;;;;8.34;100.00;101041.33;1725753;82;21053;-69
2021/11/07 01:59:47;;;;;;;10.35;7.20;;;;;;;8.38;100.00;101047.41;1736494;82;21143;-64
2021/11/07 02:02:14;;;;;;;10.45;7.53;;;;;;;8.40;100.00;101048.55;1736400;82;21043;-63
2021/11/07 02:04:42;;;;;;;11.28;7.78;;;;;;;8.18;100.00;101053.20;1750115;81;21073;-65
2021/11/07 02:07:10;;;;;;;10.45;7.58;;;;;;;8.24;100.00;101055.68;1743343;81;21010;-69
2021/11/07 02:09:37;;;;;;;10.70;7.75;;;;;;;8.31;100.00;101059.32;1747747;82;21029;-63
2021/11/07 02:12:06;;;;;;;10.88;7.78;;;;;;;8.52;100.00;101055.98;1747400;79;22067;-69
2021/11/07 02:14:33;;;;;;;10.48;7.37;;;;;;;8.23;100.00;101059.25;1747727;82;21358;-64
2021/11/07 02:17:00;;;;;;;11.35;7.55;;;;;;;8.10;100.00;101059.59;1747371;82;21480;-64
2021/11/07 02:19:28;;;;;;;12.10;7.53;;;;;;;7.91;100.00;101064.42;1747563;79;21057;-64
2021/11/07 02:21:55;;;;;;;12.47;8.78;;;;;;;8.00;100.00;101066.16;1747902;82;20991;-63
2021/11/07 02:24:23;;;;;;;10.75;8.00;;;;;;;8.08;100.00;101067.22;1746785;82;21878;-67
2021/11/07 02:26:57;;;;;;;12.30;8.78;;;;;;;8.19;100.00;101071.71;1747639;82;20998;-63
2021/11/07 02:29:24;;;;;;;11.93;7.85;;;;;;;8.09;100.00;101075.33;1746952;81;21116;-63
2021/11/07 02:31:50;;;;;;;10.60;7.80;;;;;;;8.00;100.00;101079.14;1747735;79;21015;-64
2021/11/07 02:34:17;;;;;;;10.20;6.95;;;;;;;8.03;100.00;101078.86;1746900;79;21017;-66
2021/11/07 02:36:45;;;;;;;9.40;6.75;;;;;;;7.90;100.00;101078.38;1747623;82;21106;-63
2021/11/07 02:39:16;;;;;;;10.70;7.37;;;;;;;8.24;100.00;101077.27;1746705;82;21049;-63
2021/11/07 02:41:43;;;;;;;12.13;8.53;;;;;;;8.16;100.00;101072.48;1748049;79;21496;-62
2021/11/07 02:44:10;;;;;;;17.02;10.20;;;;;;;8.21;100.00;101078.05;1747288;82;21011;-68
2021/11/07 02:46:37;;;;;;;12.90;9.08;;;;;;;8.15;100.00;101079.95;1747497;82;21160;-64
2021/11/07 02:49:05;;;;;;;14.78;10.28;;;;;;;8.24;100.00;101085.55;1747078;82;21108;-63
2021/11/07 02:51:37;;;;;;;17.75;11.85;;;;;;;8.18;100.00;101086.12;1747712;82;21073;-62
2021/11/07 02:54:07;;;;;;;15.38;9.80;;;;;;;8.19;100.00;101086.48;1746696;79;20987;-64
2021/11/07 02:56:33;;;;;;;14.53;10.53;;;;;;;8.24;100.00;101085.06;1747733;82;21029;-63
2021/11/07 02:59:01;;;;;;;14.00;9.45;;;;;;;8.05;100.00;101082.11;1746657;82;20994;-65
2021/11/07 03:01:28;;;;;;;17.25;10.08;;;;;;;8.14;100.00;101084.79;1747774;82;21136;-64
2021/11/07 03:04:07;;;;;;;15.83;10.28;;;;;;;8.17;100.00;101088.40;1715473;81;21126;-69
2021/11/07 03:06:32;;;;;;;17.15;11.00;;;;;;;8.12;100.00;101086.24;1706481;83;20979;-66
2021/11/07 03:08:58;;;;;;;19.52;12.50;;;;;;;7.98;100.00;101089.33;1702612;84;20928;-64
2021/11/07 03:11:25;;;;;;;18.42;11.75;;;;;;;8.21;100.00;101084.54;1703603;83;21362;-64
2021/11/07 03:13:58;;;;;;;14.85;10.78;;;;;;;8.12;100.00;101081.05;1703351;83;21485;-69
2021/11/07 03:16:22;;;;;;;13.48;8.98;;;;;;;8.44;100.00;101071.47;1702710;84;21016;-63
2021/11/07 03:18:50;;;;;;;13.83;9.18;;;;;;;8.07;100.00;101073.34;1702680;83;20976;-64
2021/11/07 03:21:19;;;;;;;11.80;8.23;;;;;;;8.30;100.00;101066.79;1703428;84;21486;-64
2021/11/07 03:23:50;;;;;;;10.10;7.72;;;;;;;8.27;100.00;101073.09;1703510;84;21048;-64
2021/11/07 03:26:15;;;;;;;11.12;8.15;;;;;;;8.18;100.00;101071.39;1681220;85;21197;-69
2021/11/07 03:28:43;;;;;;;11.63;8.23;;;;;;;8.38;100.00;101070.79;1683642;85;21051;-64
2021/11/07 03:31:17;;;;;;;10.18;7.42;;;;;;;8.49;100.00;101074.46;1673247;85;21505;-64
2021/11/07 03:33:45;;;;;;;12.60;9.03;;;;;;;8.71;100.00;101077.54;1683081;82;20884;-64
2021/11/07 03:36:16;;;;;;;11.48;7.92;;;;;;;9.14;100.00;101075.91;1683143;83;20940;-70
2021/11/07 03:38:39;;;;;;;11.48;8.38;;;;;;;8.97;100.00;101077.09;1671025;85;21126;-64
2021/11/07 03:41:05;;;;;;;11.53;8.45;;;;;;;8.60;100.00;101082.52;1683144;84;21509;-64
2021/11/07 03:43:32;;;;;;;11.22;8.30;;;;;;;8.83;100.00;101084.64;1688058;84;21034;-63
2021/11/07 03:45:58;;;;;;;10.72;8.10;;;;;;;9.21;100.00;101077.75;1687834;83;21413;-69
2021/11/07 03:48:25;;;;;;;9.73;7.40;;;;;;;9.16;100.00;101083.88;1692084;83;21019;-64
2021/11/07 03:50:52;;;;;;;10.38;8.18;;;;;;;8.93;100.00;101087.46;1684253;82;22567;-64
2021/11/07 03:53:19;;;;;;;10.38;7.70;;;;;;;9.05;100.00;101086.72;1684144;82;20840;-64
2021/11/07 03:55:46;;;;;;;10.40;8.05;;;;;;;9.06;100.00;101084.97;1684109;83;20975;-63
2021/11/07 03:58:13;;;;;;;9.65;6.75;;;;;;;9.04;100.00;101090.80;1683604;82;21812;-68
2021/11/07 04:00:40;;;;;;;11.03;7.83;;;;;;;9.04;100.00;101084.29;1687467;82;21397;-64
2021/11/07 04:03:06;;;;;;;10.30;7.37;;;;;;;8.99;100.00;101080.36;1715491;82;21220;-64
2021/11/07 04:05:34;;;;;;;10.45;7.87;;;;;;;9.13;100.00;101078.16;1714892;82;21055;-63
2021/11/07 04:08:02;;;;;;;9.65;7.00;;;;;;;9.11;100.00;101070.52;1724748;81;21106;-67
2021/11/07 04:10:29;;;;;;;9.58;7.53;;;;;;;9.12;100.00;101074.75;1714752;82;20945;-63
2021/11/07 04:12:56;;;;;;;11.95;8.23;;;;;;;9.12;100.00;101079.14;1714541;83;21296;-64
2021/11/07 04:15:24;;;;;;;12.90;9.55;;;;;;;9.03;100.00;101082.66;1716051;83;21227;-63
2021/11/07 04:17:51;;;;;;;12.05;8.80;;;;;;;9.09;100.00;101088.54;1715005;82;20963;-63
2021/11/07 04:20:18;;;;;;;13.50;9.43;;;;;;;9.21;100.00;101086.04;1714596;82;21074;-64
2021/11/07 04:22:47;;;;;;;14.35;9.70;;;;;;;9.36;100.00;101087.09;1703336;83;22422;-64
2021/11/07 04:25:14;;;;;;;11.83;9.30;;;;;;;9.46;100.00;101090.38;1715078;83;20992;-62
2021/11/07 04:27:41;;;;;;;13.68;9.45;;;;;;;9.70;100.00;101089.70;1715539;83;21145;-64
2021/11/07 04:30:09;;;;;;;14.85;10.60;;;;;;;9.67;100.00;101089.19;1715056;82;21019;-66
2021/11/07 04:32:36;;;;;;;13.32;10.00;;;;;;;9.54;100.00;101096.60;1714372;82;20991;-63
2021/11/07 04:35:07;;;;;;;13.55;9.65;;;;;;;9.80;100.00;101097.86;1715235;83;21079;-62
2021/11/07 04:37:34;;;;;;;13.50;10.08;;;;;;;9.63;100.00;101103.01;1715062;82;21138;-62
2021/11/07 04:40:01;;;;;;;14.38;9.90;;;;;;;9.69;100.00;101102.86;1714556;82;21122;-64
2021/11/07 04:42:28;;;;;;;13.65;9.70;;;;;;;9.61;100.00;101100.22;1714642;83;20983;-72
2021/11/07 04:44:54;;;;;;;13.85;10.53;;;;;;;9.86;100.00;101098.05;1714160;83;21038;-62
2021/11/07 04:47:20;;;;;;;12.90;10.23;;;;;;;9.78;100.00;101102.42;1715355;82;21539;-62
2021/11/07 04:49:47;;;;;;;12.30;8.63;;;;;;;10.08;100.00;101099.75;1714789;83;20899;-65
2021/11/07 04:52:13;;;;;;;12.10;8.28;;;;;;;10.33;100.00;101105.84;1714699;83;21132;-66
2021/11/07 04:54:40;;;;;;;20.43;10.53;;;;;;;9.99;100.00;101107.52;1715029;82;21049;-63
2021/11/07 04:57:07;;;;;;;27.07;12.68;;;;;;;9.86;100.00;101106.35;1714384;82;21058;-63
2021/11/07 04:59:34;;;;;;;41.23;11.08;;;;;;;9.84;100.00;101108.28;1715081;83;21034;-63
2021/11/07 05:02:00;;;;;;;45.28;11.75;;;;;;;10.22;100.00;101111.66;1695765;83;21086;-64
2021/11/07 05:04:27;;;;;;;35.05;13.28;;;;;;;10.75;100.00;101110.12;1682366;83;21434;-63
2021/11/07 05:06:54;;;;;;;40.23;13.30;;;;;;;11.16;100.00;101116.13;1682869;85;21090;-65
2021/11/07 05:09:21;;;;;;;30.40;12.20;;;;;;;11.27;100.00;101109.75;1682978;85;21126;-63
2021/11/07 05:11:47;;;;;;;24.23;11.20;;;;;;;11.46;100.00;101106.77;1682527;83;21008;-64
2021/11/07 05:14:16;;;;;;;21.77;10.20;;;;;;;11.72;100.00;101107.81;1682732;83;21074;-66
2021/11/07 05:16:42;;;;;;;27.65;11.70;;;;;;;12.23;100.00;101109.54;1683372;83;21156;-64
2021/11/07 05:19:09;;;;;;;35.07;12.10;;;;;;;12.89;100.00;101109.89;1672064;85;20947;-69
2021/11/07 05:21:36;;;;;;;28.53;11.77;;;;;;;12.99;100.00;101105.69;1683506;83;21656;-63
2021/11/07 05:24:04;;;;;;;42.62;13.05;;;;;;;12.96;100.00;101108.69;1683349;83;21722;-63
2021/11/07 05:26:31;;;;;;;42.97;12.57;;;;;;;13.29;100.00;101112.62;1682730;83;21014;-64
2021/11/07 05:28:58;;;;;;;39.00;12.00;;;;;;;13.66;100.00;101110.09;1683317;83;21333;-68
2021/11/07 05:31:24;;;;;;;25.67;10.50;;;;;;;14.10;100.00;101110.03;1683044;85;21187;-64
2021/11/07 05:33:51;;;;;;;19.20;9.20;;;;;;;14.47;100.00;101111.63;1683371;85;21255;-64
2021/11/07 05:36:18;;;;;;;29.60;10.50;;;;;;;15.14;100.00;101106.92;1683657;85;21372;-64
2021/11/07 05:38:44;;;;;;;27.70;9.07;;;;;;;15.76;100.00;101099.02;1682336;85;21709;-66
2021/11/07 05:41:11;;;;;;;33.23;10.70;;;;;;;16.08;100.00;101096.67;1683089;85;21797;-70
2021/11/07 05:43:38;;;;;;;37.03;10.97;;;;;;;16.66;93.50;101102.21;1683468;85;22092;-64
2021/11/07 05:46:04;;;;;;;30.53;10.37;;;;;;;17.25;80.77;101098.75;1683352;85;20995;-64
2021/11/07 05:48:32;;;;;;;23.40;9.83;;;;;;;17.88;70.57;101099.48;1683342;85;21107;-69
2021/11/07 05:50:58;;;;;;;14.27;7.70;;;;;;;18.03;64.15;101099.17;1682723;84;21044;-65
2021/11/07 05:53:25;;;;;;;11.47;7.53;;;;;;;18.37;58.72;101094.02;1682712;84;21230;-65
2021/11/07 05:55:52;;;;;;;11.87;7.97;;;;;;;18.81;55.24;101103.34;1683246;85;21070;-65
2021/11/07 05:58:19;;;;;;;18.63;8.07;;;;;;;19.25;53.68;101100.20;1683543;85;21071;-65
2021/11/07 06:00:47;;;;;;;19.77;9.13;;;;;;;19.55;51.68;101094.98;1682822;85;20936;-69
2021/11/07 06:03:14;;;;;;;14.97;8.07;;;;;;;19.47;50.49;101089.45;1729155;81;21089;-69
2021/11/07 06:05:40;;;;;;;12.03;7.70;;;;;;;19.45;49.48;101094.16;1730029;82;21119;-65
2021/11/07 06:08:07;;;;;;;15.20;7.83;;;;;;;19.97;47.26;101086.62;1728892;82;21481;-65
2021/11/07 06:10:33;;;;;;;14.03;7.90;;;;;;;20.29;46.28;101087.69;1728171;82;21058;-64
2021/11/07 06:12:59;;;;;;;11.23;7.90;;;;;;;20.77;45.51;101093.38;1730182;81;21007;-66
2021/11/07 06:15:28;;;;;;;11.77;7.97;;;;;;;20.80;45.58;101091.59;1729639;82;21081;-70
2021/11/07 06:17:56;;;;;;;13.30;8.03;;;;;;;21.09;44.45;101094.61;1729838;82;21114;-65
2021/11/07 06:20:22;;;;;;;12.80;8.07;;;;;;;21.14;43.74;101091.30;1730400;81;21065;-64
2021/11/07 06:22:49;;;;;;;13.40;9.30;;;;;;;21.26;43.34;101096.05;1729199;82;20879;-70
2021/11/07 06:25:16;;;;;;;18.63;9.50;;;;;;;21.57;42.36;101094.85;1729793;82;21057;-65
2021/11/07 06:27:42;;;;;;;12.53;8.57;;;;;;;21.50;43.30;101088.87;1730392;82;21164;-64
2021/11/07 06:30:11;;;;;;;17.53;8.33;;;;;;;21.97;42.66;101089.20;1730998;81;21211;-65
2021/11/07 06:32:38;;;;;;;14.17;8.00;;;;;;;21.63;43.38;101093.12;1730762;81;20914;-65
2021/11/07 06:35:07;;;;;;;18.53;9.00;;;;;;;22.19;42.63;101091.49;1726949;82;20954;-71
2021/11/07 06:37:34;;;;;;;15.47;7.90;;;;;;;22.48;41.37;101093.58;1731069;81;22413;-66
2021/11/07 06:40:01;;;;;;;14.53;9.13;;;;;;;23.15;40.49;101095.38;1730010;82;21076;-65
2021/11/07 06:42:28;;;;;;;16.00;9.00;;;;;;;23.22;39.78;101096.50;1720809;81;21117;-68
2021/11/07 06:44:54;;;;;;;14.40;7.87;;;;;;;23.19;39.59;101100.48;1726720;82;20935;-68
2021/11/07 06:47:22;;;;;;;13.27;8.57;;;;;;;23.45;39.24;101096.78;1729376;81;21038;-72
2021/11/07 06:49:49;;;;;;;16.17;8.87;;;;;;;23.71;38.50;101097.39;1729540;82;21065;-68
2021/11/07 06:52:16;;;;;;;15.77;8.97;;;;;;;23.75;38.10;101090.53;1730528;82;21025;-66
2021/11/07 06:54:43;;;;;;;15.20;8.00;;;;;;;23.48;37.63;101090.45;1730733;81;21198;-66
2021/11/07 06:57:09;;;;;;;10.53;7.33;;;;;;;23.92;37.46;101089.09;1715740;81;21784;-70
2021/11/07 06:59:36;;;;;;;11.13;7.70;;;;;;;23.76;37.53;101096.66;1707750;82;21105;-66
2021/11/07 07:02:03;;;;;;;11.10;7.73;;;;;;;23.93;36.94;101092.02;1724154;82;21070;-66
2021/11/07 07:04:30;;;;;;;12.47;7.43;;;;;;;23.75;36.74;101099.02;1695930;81;21027;-66
2021/11/07 07:06:58;;;;;;;9.33;7.33;;;;;;;23.79;35.68;101093.50;1693139;81;21156;-72
2021/11/07 07:09:27;;;;;;;12.53;7.60;;;;;;;22.88;36.46;101109.88;1705683;83;21508;-73
2021/11/07 07:12:14;;;;;;;9.87;7.50;;;;;;;22.11;37.64;101105.94;1714773;83;21264;-69
2021/11/07 07:23:17;;;;;;;18.43;10.80;;;;;;;21.65;39.69;101101.63;1712668;81;21094;-67
2021/11/07 07:30:48;;;;;;;12.67;8.23;;;;;;;20.93;40.20;101099.30;1695502;83;21030;-68
2021/11/07 07:34:09;;;;;;;13.33;7.97;;;;;;;19.99;41.97;101103.59;1698254;82;21123;-68
2021/11/07 07:35:44;;;;;;;15.03;9.17;;;;;;;20.51;41.70;101108.66;1675015;82;21021;-68
2021/11/07 07:38:11;;;;;;;10.73;8.63;;;;;;;20.81;41.47;101099.83;1705729;81;21204;-69
2021/11/07 07:40:38;;;;;;;13.40;8.73;;;;;;;21.46;41.00;101107.63;1708706;82;20994;-71
2021/11/07 07:43:04;;;;;;;10.27;7.73;;;;;;;21.21;40.65;101105.20;1702913;81;21093;-70
2021/11/07 07:45:31;;;;;;;12.80;8.27;;;;;;;21.23;40.93;101102.34;1715409;83;21166;-70
2021/11/07 07:48:00;;;;;;;11.77;7.27;;;;;;;21.66;40.98;101103.23;1714525;83;20941;-72
2021/11/07 07:50:28;;;;;;;13.17;8.07;;;;;;;21.97;39.96;101099.33;1715111;82;21616;-71
2021/11/07 07:52:55;;;;;;;13.17;7.27;;;;;;;20.93;41.86;101104.60;1715484;82;21090;-71
2021/11/07 07:55:22;;;;;;;10.73;8.10;;;;;;;20.89;41.73;101104.78;1707998;82;21085;-70
2021/11/07 07:57:49;;;;;;;10.40;8.60;;;;;;;20.91;42.02;101106.69;1711633;82;21136;-69
2021/11/07 08:00:18;;;;;;;19.77;9.07;;;;;;;21.29;41.65;101106.69;1715732;83;21124;-69
2021/11/07 08:02:44;;;;;;;15.13;7.47;;;;;;;21.27;41.20;101100.83;1699213;83;21023;-68
2021/11/07 08:05:12;;;;;;;8.73;7.83;;;;;;;21.43;40.58;101098.80;1683758;83;21087;-69
2021/11/07 08:07:42;;;;;;;9.50;7.13;;;;;;;21.39;40.80;101102.97;1683699;83;20967;-69
2021/11/07 08:10:09;;;;;;;8.63;7.43;;;;;;;21.71;41.03;101098.58;1683180;83;21186;-68
2021/11/07 08:12:37;;;;;;;9.70;6.70;;;;;;;21.86;40.30;101094.87;1684962;83;21126;-68
2021/11/07 08:15:05;;;;;;;9.60;7.07;;;;;;;22.32;39.51;101089.06;1681503;85;21762;-70
2021/11/07 08:17:33;;;;;;;10.70;6.90;;;;;;;22.66;39.02;101087.74;1672118;83;20940;-70
2021/11/07 08:20:06;;;;;;;7.57;6.00;;;;;;;22.67;38.69;101078.72;1680825;83;21345;-71
2021/11/07 08:22:33;;;;;;;11.07;6.20;;;;;;;22.71;38.53;101073.98;1681775;85;21086;-73
2021/11/07 08:25:09;;;;;;;9.60;6.67;;;;;;;23.32;37.40;101075.36;1681598;85;21015;-74
2021/11/07 08:27:29;;;;;;;12.10;6.77;;;;;;;23.70;36.19;101072.36;1669721;83;20932;-71
2021/11/07 08:29:57;;;;;;;11.70;6.70;;;;;;;23.74;36.18;101073.47;1681365;83;20960;-75
2021/11/07 08:32:23;;;;;;;11.70;7.10;;;;;;;23.63;35.87;101073.84;1681584;83;21418;-69
2021/11/07 08:34:51;;;;;;;8.20;6.10;;;;;;;23.73;35.91;101074.53;1681445;83;21763;-69
2021/11/07 08:37:20;;;;;;;8.97;6.20;;;;;;;23.71;35.63;101076.63;1681783;83;21004;-72
2021/11/07 08:39:53;;;;;;;11.03;5.70;;;;;;;23.67;35.68;101074.19;1681334;83;20936;-68
2021/11/07 08:42:32;;;;;;;7.20;5.47;;;;;;;23.54;35.66;101075.36;1680780;83;20943;-69
2021/11/07 09:01:57;;;;;;;9.27;5.63;;;;;;;23.36;34.62;101060.51;1665096;83;21154;-72
2021/11/07 09:09:15;;;;;;;9.30;5.80;;;;;;;23.17;35.05;101065.86;1712161;83;21003;-68
2021/11/07 09:11:52;;;;;;;10.57;6.13;;;;;;;23.12;35.17;101058.63;1723200;83;21045;-68
2021/11/07 09:14:26;;;;;;;8.50;5.40;;;;;;;22.58;35.58;101058.40;1713654;83;21144;-67
2021/11/07 09:16:53;;;;;;;9.80;5.57;;;;;;;22.80;35.12;101053.11;1722507;81;20951;-72
2021/11/07 09:19:23;;;;;;;7.30;4.77;;;;;;;22.56;35.89;101059.95;1722708;83;20950;-68
2021/11/07 09:21:52;;;;;;;12.33;5.70;;;;;;;23.02;35.51;101050.52;1722279;81;21076;-68
2021/11/07 09:24:38;;;;;;;12.00;6.10;;;;;;;23.01;35.09;101049.72;1723072;83;21101;-67
2021/11/07 09:27:01;;;;;;;9.17;5.53;;;;;;;22.97;34.59;101044.61;1720818;83;21369;-75
2021/11/07 09:29:46;;;;;;;19.97;11.33;;;;;;;22.65;35.38;101048.91;1722666;81;21010;-67
2021/11/07 09:32:14;;;;;;;13.10;8.83;;;;;;;22.37;35.81;101037.34;1726759;81;21042;-65
2021/11/07 09:34:57;;;;;;;12.27;6.10;;;;;;;22.20;36.17;101034.70;1721832;81;20880;-66
2021/11/07 09:37:26;;;;;;;12.90;7.63;;;;;;;22.54;35.60;101030.17;1719161;81;21073;-67
2021/11/07 09:39:56;;;;;;;16.40;9.80;;;;;;;22.22;35.78;101031.27;1721308;83;21212;-69
2021/11/07 09:44:59;;;;;;;6.20;4.50;;;;;;;22.24;35.90;101033.17;1725080;80;20900;-67
2021/11/07 09:47:26;;;;;;;7.07;4.97;;;;;;;22.25;35.26;101031.31;1715500;81;20980;-66
2021/11/07 09:49:52;;;;;;;5.10;3.97;;;;;;;22.00;35.87;101029.80;1716535;81;20998;-63
2021/11/07 09:52:25;;;;;;;7.47;5.07;;;;;;;21.94;35.67;101023.34;1734698;81;21330;-74
2021/11/07 09:55:01;;;;;;;7.77;4.63;;;;;;;21.82;35.99;101024.21;1720258;81;21635;-66
2021/11/07 09:57:28;;;;;;;6.50;4.93;;;;;;;22.22;35.61;101015.86;1723116;83;21536;-65
2021/11/07 10:00:00;;;;;;;10.20;5.00;;;;;;;22.15;35.97;101016.53;1722195;81;20896;-63
2021/11/07 10:02:28;;;;;;;6.37;4.10;;;;;;;22.08;36.26;101007.36;1721633;81;21125;-64
2021/11/07 10:04:57;;;;;;;5.93;4.47;;;;;;;22.15;35.56;101005.39;1681520;83;21146;-64
2021/11/07 10:07:29;;;;;;;5.23;3.80;;;;;;;22.23;35.12;100998.34;1683015;83;21016;-65
2021/11/07 10:09:58;;;;;;;;;;;;;;;22.15;35.04;100992.64;1676274;83;21107;-77
2021/11/07 10:12:36;;;;;;;6.43;4.30;;;;;;;21.91;35.32;100990.64;1680637;83;20425;-66
2021/11/07 10:15:03;;;;;;;8.23;4.80;;;;;;;21.89;35.99;100991.39;1679015;83;20916;-65
2021/11/07 10:17:45;;;;;;;6.00;4.20;;;;;;;22.06;35.94;100989.56;1680933;83;22027;-65
2021/11/07 10:20:28;;;;;;;7.37;4.50;;;;;;;22.20;35.59;100988.23;1678681;83;21026;-65
2021/11/07 10:23:13;;;;;;;5.97;3.80;;;;;;;22.05;36.01;100983.45;1680427;85;21091;-68
2021/11/07 10:25:51;;;;;;;5.63;3.70;;;;;;;22.01;35.58;100973.03;1681307;83;21015;-66
2021/11/07 10:28:29;;;;;;;7.37;4.07;;;;;;;22.17;35.50;100964.80;1681952;84;20987;-68
2021/11/07 10:31:26;;;;;;;6.93;3.93;;;;;;;21.91;36.07;100966.22;1681103;83;21840;-72
2021/11/07 10:45:57;;;;;;;4.63;3.00;;;;;;;21.74;36.10;100962.21;1673860;83;21790;-66
2021/11/07 10:53:27;;;;;;;5.53;3.87;;;;;;;21.56;35.40;100959.27;1678153;83;21063;-68
2021/11/07 10:56:03;;;;;;;7.03;4.47;;;;;;;21.51;35.52;100945.09;1681078;83;21585;-69
2021/11/07 10:58:40;;;;;;;36.07;24.17;;;;;;;21.43;35.89;100946.29;1680079;83;21768;-70
2021/11/07 11:01:10;;;;;;;24.10;15.60;;;;;;;21.50;36.36;100939.52;1680091;83;21489;-71
2021/11/07 11:03:54;;;;;;;13.63;9.37;;;;;;;21.53;36.48;100948.33;1682535;83;21047;-70
2021/11/07 11:06:21;;;;;;;14.83;7.57;;;;;;;21.47;36.54;100953.25;1680149;83;22429;-71
2021/11/07 11:08:54;;;;;;;17.80;11.37;;;;;;;21.64;36.01;100944.02;1684758;83;21074;-69
2021/11/07 11:11:31;;;;;;;21.67;13.27;;;;;;;21.41;36.23;100936.98;1698022;82;21163;-68
2021/11/07 11:14:13;;;;;;;23.63;13.83;;;;;;;21.38;36.24;100936.92;1702174;82;21055;-72
2021/11/07 11:16:56;;;;;;;8.90;5.10;;;;;;;21.20;36.38;100937.08;1673851;83;20902;-71
2021/11/07 11:40:53;;;;;;;9.53;5.93;;;;;;;20.74;36.80;100904.39;1694676;82;21616;-74
2021/11/07 11:43:30;;;;;;;11.57;6.63;;;;;;;20.73;36.86;100904.12;1695472;82;21023;-71
2021/11/07 11:45:58;;;;;;;7.53;5.07;;;;;;;20.70;36.75;100902.73;1683607;83;21030;-71
2021/11/07 12:02:33;;;;;;;13.27;8.50;;;;;;;20.16;37.57;100888.84;1690358;83;21061;-66
2021/11/07 12:05:19;;;;;;;10.93;6.80;;;;;;;20.05;37.61;100894.95;1684288;84;21147;-66
2021/11/07 12:07:56;;;;;;;7.13;4.57;;;;;;;20.06;37.93;100886.77;1683092;83;21447;-65
2021/11/07 12:10:26;;;;;;;8.53;5.53;;;;;;;20.04;37.81;100891.50;1669375;84;21098;-65
2021/11/07 12:12:58;;;;;;;6.43;3.70;;;;;;;19.76;38.49;100890.83;1682258;83;38638;-68
2021/11/07 12:18:06;;;;;;;6.40;4.43;;;;;;;19.97;38.43;100878.09;1685354;84;22615;-68
2021/11/07 12:20:39;;;;;;;7.43;3.83;;;;;;;19.82;38.61;100885.95;1684392;84;21718;-67
2021/11/07 12:23:31;;;;;;;6.20;3.40;;;;;;;19.45;39.28;100894.02;1685108;84;20912;-73
2021/11/07 12:25:56;;;;;;;4.95;3.00;;;;;;;19.29;39.28;100886.73;1685633;83;20983;-68
2021/11/07 12:28:45;;;;;;;9.50;4.23;;;;;;;18.80;39.96;100889.91;1685541;83;20999;-68
2021/11/07 12:31:11;;;;;;;8.83;4.90;;;;;;;18.96;39.99;100880.05;1684868;83;22153;-67
2021/11/07 12:34:03;;;;;;;7.63;5.07;;;;;;;18.92;40.02;100875.44;1685006;83;21008;-68
2021/11/07 12:41:42;;;;;;;7.33;4.53;;;;;;;18.44;41.29;100877.48;1685211;84;20103;-69
2021/11/07 12:44:22;;;;;;;7.97;5.40;;;;;;;18.20;41.81;100880.48;1684628;83;21085;-74
2021/11/07 12:47:05;;;;;;;9.50;6.10;;;;;;;18.00;42.20;100879.35;1685297;83;21114;-66
2021/11/07 12:49:27;;;;;;;10.23;6.33;;;;;;;17.83;42.68;100875.62;1692374;83;21436;-70
2021/11/07 12:51:58;;;;;;;10.23;6.73;;;;;;;17.65;43.20;100875.86;1684906;84;21007;-67
2021/11/07 12:54:30;;;;;;;14.17;9.07;;;;;;;17.57;43.90;100873.45;1678961;83;21524;-66
2021/11/07 12:57:05;;;;;;;22.63;14.77;;;;;;;17.36;44.62;100871.19;1685398;83;21185;-65
2021/11/07 12:59:55;;;;;;;23.80;13.00;;;;;;;17.13;45.33;100870.41;1681532;83;21544;-65
2021/11/07 13:02:31;;;;;;;36.03;18.57;;;;;;;17.06;45.38;100874.39;1703691;82;21544;-65
2021/11/07 13:05:30;;;;;;;59.70;26.40;;;;;;;16.88;45.75;100859.27;1712317;81;20999;-75
2021/11/07 13:07:59;;;;;;;50.67;24.47;;;;;;;16.59;46.38;100872.40;1715766;82;21055;-65
2021/11/07 13:13:10;;;;;;;32.60;16.73;;;;;;;16.43;47.02;100875.49;1717041;81;21232;-71
2021/11/07 13:15:47;;;;;;;24.15;14.53;;;;;;;16.38;47.94;100877.43;1717947;80;20982;-67
2021/11/07 13:21:06;;;;;;;20.70;11.50;;;;;;;16.16;49.60;100874.23;1716735;81;21568;-68
2021/11/07 13:28:53;;;;;;;28.20;19.30;;;;;;;16.13;50.96;100884.34;1716755;81;21755;-64
2021/11/07 13:33:42;;;;;;;16.43;10.27;;;;;;;16.05;52.72;100874.34;1705383;81;21750;-78
2021/11/07 13:36:16;;;;;;;15.97;9.57;;;;;;;16.05;52.72;100874.34;1707114;81;21795;-74
2021/11/07 13:38:52;;;;;;;15.40;10.10;;;;;;;16.01;52.85;100865.75;1714259;81;23214;-65
2021/11/07 13:41:23;;;;;;;15.50;9.97;;;;;;;16.02;52.80;100867.36;1700822;82;21643;-75
2021/11/07 13:44:04;;;;;;;15.50;9.63;;;;;;;15.93;53.36;100860.19;1719430;81;21611;-76